createdAt,value
2023-12-09T00:00:27.091Z,506.00
2023-12-09T00:01:27.144Z,506.00
2023-12-09T00:02:27.550Z,507.00
2023-12-09T00:03:27.320Z,505.00
2023-12-09T00:04:27.383Z,507.00
2023-12-09T00:05:27.320Z,507.00
2023-12-09T00:06:27.450Z,506.00
2023-12-09T00:07:27.432Z,506.00
2023-12-09T00:08:27.523Z,508.00
2023-12-09T00:09:27.738Z,508.00
2023-12-09T00:10:27.619Z,511.00
2023-12-09T00:11:27.619Z,510.00
2023-12-09T00:12:27.953Z,510.00
2023-12-09T00:13:27.717Z,511.00
2023-12-09T00:14:27.742Z,509.00
2023-12-09T00:15:27.873Z,508.00
2023-12-09T00:16:27.845Z,509.00
2023-12-09T00:17:27.884Z,510.00
2023-12-09T00:18:28.094Z,510.00
2023-12-09T00:19:28.138Z,511.00
2023-12-09T00:20:28.055Z,511.00
2023-12-09T00:21:28.179Z,511.00
2023-12-09T00:22:28.404Z,510.00
2023-12-09T00:23:28.180Z,509.00
2023-12-09T00:24:28.371Z,509.00
2023-12-09T00:25:28.312Z,509.00
2023-12-09T00:26:28.346Z,506.00
2023-12-09T00:27:28.443Z,504.00
2023-12-09T00:28:28.437Z,501.00
2023-12-09T00:29:28.497Z,500.00
2023-12-09T00:30:28.593Z,499.00
2023-12-09T00:32:14.332Z,502.00
2023-12-09T00:33:14.316Z,499.00
2023-12-09T00:34:14.297Z,500.00
2023-12-09T00:35:14.258Z,499.00
2023-12-09T00:36:14.256Z,501.00
2023-12-09T00:37:14.248Z,502.00
2023-12-09T00:38:14.248Z,502.00
2023-12-09T00:39:14.307Z,502.00
2023-12-09T00:40:14.295Z,500.00
2023-12-09T00:41:14.254Z,501.00
2023-12-09T00:42:14.277Z,501.00
2023-12-09T00:43:14.251Z,501.00
2023-12-09T00:44:14.245Z,500.00
2023-12-09T00:45:14.245Z,501.00
2023-12-09T00:46:14.264Z,501.00
2023-12-09T00:47:14.264Z,501.00
2023-12-09T00:48:14.329Z,501.00
2023-12-09T00:49:14.274Z,502.00
2023-12-09T00:50:14.258Z,504.00
2023-12-09T00:51:14.308Z,503.00
2023-12-09T00:52:14.272Z,504.00
2023-12-09T00:53:14.249Z,502.00
2023-12-09T00:54:14.367Z,501.00
2023-12-09T00:55:14.299Z,500.00
2023-12-09T00:56:14.286Z,500.00
2023-12-09T00:57:14.340Z,500.00
2023-12-09T00:58:14.260Z,499.00
2023-12-09T00:59:14.285Z,499.00
2023-12-09T01:00:14.313Z,500.00
2023-12-09T01:01:14.319Z,502.00
2023-12-09T01:02:14.261Z,503.00
2023-12-09T01:03:14.344Z,504.00
2023-12-09T01:04:14.470Z,503.00
2023-12-09T01:05:14.383Z,503.00
2023-12-09T01:06:14.440Z,504.00
2023-12-09T01:07:14.446Z,504.00
2023-12-09T01:08:14.483Z,504.00
2023-12-09T01:09:14.542Z,507.00
2023-12-09T01:10:14.562Z,506.00
2023-12-09T01:11:14.591Z,507.00
2023-12-09T01:12:14.765Z,506.00
2023-12-09T01:13:14.681Z,504.00
2023-12-09T01:14:14.752Z,504.00
2023-12-09T01:15:14.836Z,503.00
2023-12-09T01:16:14.969Z,501.00
2023-12-09T01:17:14.998Z,500.00
2023-12-09T01:18:15.142Z,500.00
2023-12-09T01:19:15.017Z,497.00
2023-12-09T01:20:14.979Z,496.00
2023-12-09T01:21:15.096Z,497.00
2023-12-09T01:22:15.078Z,497.00
2023-12-09T01:23:15.112Z,500.00
2023-12-09T01:24:15.203Z,500.00
2023-12-09T01:25:15.171Z,502.00
2023-12-09T01:26:15.218Z,501.00
2023-12-09T01:27:15.341Z,502.00
2023-12-09T01:28:15.296Z,500.00
2023-12-09T01:29:15.327Z,501.00
2023-12-09T01:30:15.405Z,502.00
2023-12-09T01:31:15.386Z,502.00
2023-12-09T01:32:15.435Z,502.00
2023-12-09T01:33:15.589Z,505.00
2023-12-09T01:34:15.728Z,505.00
2023-12-09T01:35:15.551Z,503.00
2023-12-09T01:36:15.643Z,502.00
2023-12-09T01:37:15.633Z,503.00
2023-12-09T01:38:15.726Z,503.00
2023-12-09T01:39:15.711Z,503.00
2023-12-09T01:40:15.782Z,503.00
2023-12-09T01:41:15.760Z,502.00
2023-12-09T01:42:15.846Z,502.00
2023-12-09T01:43:15.877Z,502.00
2023-12-09T01:44:15.891Z,504.00
2023-12-09T01:45:15.956Z,504.00
2023-12-09T01:46:15.965Z,505.00
2023-12-09T01:47:16.007Z,504.00
2023-12-09T01:48:16.182Z,506.00
2023-12-09T01:49:16.245Z,506.00
2023-12-09T01:50:16.192Z,507.00
2023-12-09T01:51:16.164Z,508.00
2023-12-09T01:52:16.204Z,509.00
2023-12-09T01:53:16.242Z,507.00
2023-12-09T01:54:16.305Z,506.00
2023-12-09T01:55:16.316Z,506.00
2023-12-09T01:56:16.378Z,505.00
2023-12-09T01:57:16.448Z,504.00
2023-12-09T01:58:16.400Z,500.00
2023-12-09T01:59:16.428Z,500.00
2023-12-09T02:00:17.070Z,502.00
2023-12-09T02:01:16.537Z,501.00
2023-12-09T02:02:16.581Z,501.00
2023-12-09T02:03:16.669Z,501.00
2023-12-09T02:04:16.649Z,504.00
2023-12-09T02:05:16.801Z,505.00
2023-12-09T02:06:16.705Z,503.00
2023-12-09T02:07:16.746Z,504.00
2023-12-09T02:08:16.754Z,505.00
2023-12-09T02:09:16.796Z,502.00
2023-12-09T02:10:16.825Z,499.00
2023-12-09T02:11:16.888Z,499.00
2023-12-09T02:12:16.899Z,499.00
2023-12-09T02:13:16.932Z,498.00
2023-12-09T02:14:16.981Z,496.00
2023-12-09T02:15:17.002Z,498.00
2023-12-09T02:16:16.998Z,497.00
2023-12-09T02:17:17.123Z,499.00
2023-12-09T02:18:17.236Z,499.00
2023-12-09T02:19:17.268Z,503.00
2023-12-09T02:20:17.222Z,506.00
2023-12-09T02:21:17.240Z,507.00
2023-12-09T02:22:17.284Z,507.00
2023-12-09T02:23:17.257Z,509.00
2023-12-09T02:24:17.379Z,509.00
2023-12-09T02:25:17.377Z,508.00
2023-12-09T02:26:17.428Z,509.00
2023-12-09T02:27:17.552Z,510.00
2023-12-09T02:28:17.474Z,512.00
2023-12-09T02:29:17.556Z,510.00
2023-12-09T02:30:17.618Z,509.00
2023-12-09T02:31:17.607Z,510.00
2023-12-09T02:32:17.668Z,511.00
2023-12-09T02:33:17.941Z,510.00
2023-12-09T02:34:17.836Z,510.00
2023-12-09T02:35:17.795Z,510.00
2023-12-09T02:36:17.887Z,510.00
2023-12-09T02:37:17.855Z,507.00
2023-12-09T02:38:17.919Z,507.00
2023-12-09T02:39:17.966Z,506.00
2023-12-09T02:40:17.990Z,505.00
2023-12-09T02:41:18.035Z,507.00
2023-12-09T02:42:18.080Z,505.00
2023-12-09T02:43:18.110Z,506.00
2023-12-09T02:44:18.122Z,508.00
2023-12-09T02:45:18.211Z,507.00
2023-12-09T02:46:18.235Z,507.00
2023-12-09T02:47:18.287Z,507.00
2023-12-09T02:48:18.468Z,507.00
2023-12-09T02:49:18.413Z,508.00
2023-12-09T02:50:18.381Z,508.00
2023-12-09T02:51:18.657Z,508.00
2023-12-09T02:52:18.605Z,506.00
2023-12-09T02:53:18.619Z,507.00
2023-12-09T02:54:18.595Z,507.00
2023-12-09T02:55:18.608Z,506.00
2023-12-09T02:56:18.613Z,506.00
2023-12-09T02:57:18.713Z,505.00
2023-12-09T02:58:18.718Z,506.00
2023-12-09T02:59:18.783Z,506.00
2023-12-09T03:00:18.843Z,506.00
2023-12-09T03:01:18.870Z,505.00
2023-12-09T03:02:18.852Z,506.00
2023-12-09T03:03:19.033Z,505.00
2023-12-09T03:04:19.018Z,504.00
2023-12-09T03:05:19.063Z,506.00
2023-12-09T03:06:19.109Z,505.00
2023-12-09T03:07:19.090Z,505.00
2023-12-09T03:08:19.101Z,505.00
2023-12-09T03:09:19.298Z,507.00
2023-12-09T03:10:19.238Z,508.00
2023-12-09T03:11:19.241Z,507.00
2023-12-09T03:12:19.311Z,506.00
2023-12-09T03:13:19.349Z,505.00
2023-12-09T03:14:19.357Z,504.00
2023-12-09T03:15:19.470Z,502.00
2023-12-09T03:16:19.402Z,501.00
2023-12-09T03:17:19.451Z,502.00
2023-12-09T03:18:19.711Z,502.00
2023-12-09T03:19:19.604Z,501.00
2023-12-09T03:20:19.599Z,500.00
2023-12-09T03:21:19.824Z,502.00
2023-12-09T03:22:19.706Z,501.00
2023-12-09T03:23:19.757Z,501.00
2023-12-09T03:24:19.811Z,502.00
2023-12-09T03:25:19.848Z,503.00
2023-12-09T03:26:19.854Z,505.00
2023-12-09T03:27:20.016Z,507.00
2023-12-09T03:28:20.008Z,506.00
2023-12-09T03:29:20.061Z,506.00
2023-12-09T03:30:20.151Z,508.00
2023-12-09T03:31:20.065Z,506.00
2023-12-09T03:32:20.197Z,508.00
2023-12-09T03:33:20.245Z,507.00
2023-12-09T03:34:20.314Z,506.00
2023-12-09T03:35:20.271Z,505.00
2023-12-09T03:36:20.336Z,504.00
2023-12-09T03:37:20.371Z,504.00
2023-12-09T03:38:20.389Z,506.00
2023-12-09T03:39:20.471Z,506.00
2023-12-09T03:40:20.490Z,504.00
2023-12-09T03:41:23.142Z,505.00
2023-12-09T03:42:20.609Z,501.00
2023-12-09T03:43:20.538Z,503.00
2023-12-09T03:44:20.590Z,506.00
2023-12-09T03:45:20.555Z,509.00
2023-12-09T03:46:20.545Z,511.00
2023-12-09T03:47:28.543Z,510.00
2023-12-09T03:48:21.739Z,508.00
2023-12-09T03:49:20.620Z,508.00
2023-12-09T03:50:20.507Z,510.00
2023-12-09T03:51:20.576Z,509.00
2023-12-09T03:52:20.537Z,510.00
2023-12-09T03:53:20.753Z,510.00
2023-12-09T03:54:20.605Z,511.00
2023-12-09T03:55:20.546Z,511.00
2023-12-09T03:56:20.547Z,509.00
2023-12-09T03:57:20.629Z,509.00
2023-12-09T03:58:20.589Z,508.00
2023-12-09T03:59:20.559Z,508.00
2023-12-09T04:00:20.589Z,507.00
2023-12-09T04:01:20.672Z,507.00
2023-12-09T04:02:20.643Z,508.00
2023-12-09T04:03:20.878Z,506.00
2023-12-09T04:04:20.813Z,506.00
2023-12-09T04:05:20.848Z,502.00
2023-12-09T04:06:20.902Z,501.00
2023-12-09T04:07:20.931Z,501.00
2023-12-09T04:08:20.945Z,501.00
2023-12-09T04:09:21.008Z,501.00
2023-12-09T04:10:21.081Z,501.00
2023-12-09T04:11:21.085Z,501.00
2023-12-09T04:12:21.155Z,503.00
2023-12-09T04:13:21.279Z,504.00
2023-12-09T04:14:21.242Z,505.00
2023-12-09T04:15:21.312Z,506.00
2023-12-09T04:16:21.365Z,506.00
2023-12-09T04:17:21.399Z,506.00
2023-12-09T04:18:21.663Z,507.00
2023-12-09T04:19:21.757Z,506.00
2023-12-09T04:20:21.696Z,505.00
2023-12-09T04:21:21.661Z,504.00
2023-12-09T04:22:21.685Z,504.00
2023-12-09T04:23:21.709Z,506.00
2023-12-09T04:24:21.834Z,508.00
2023-12-09T04:25:21.818Z,509.00
2023-12-09T04:26:21.870Z,509.00
2023-12-09T04:27:21.947Z,509.00
2023-12-09T04:28:22.001Z,509.00
2023-12-09T04:29:22.066Z,510.00
2023-12-09T04:30:22.109Z,510.00
2023-12-09T04:31:29.345Z,504.00
2023-12-09T04:32:29.710Z,510.00
2023-12-09T04:33:29.301Z,510.00
2023-12-09T04:34:29.338Z,511.00
2023-12-09T04:35:29.313Z,510.00
2023-12-09T04:36:29.346Z,510.00
2023-12-09T04:37:29.332Z,509.00
2023-12-09T04:38:29.337Z,509.00
2023-12-09T04:39:29.349Z,509.00
2023-12-09T04:40:29.305Z,509.00
2023-12-09T04:41:29.369Z,509.00
2023-12-09T04:42:29.789Z,512.00
2023-12-09T04:43:29.381Z,510.00
2023-12-09T04:44:29.363Z,510.00
2023-12-09T04:45:29.338Z,509.00
2023-12-09T04:46:29.350Z,512.00
2023-12-09T04:47:29.315Z,514.00
2023-12-09T04:48:29.569Z,515.00
2023-12-09T04:49:29.506Z,518.00
2023-12-09T04:50:29.325Z,517.00
2023-12-09T04:51:29.417Z,519.00
2023-12-09T04:52:29.571Z,519.00
2023-12-09T04:53:29.340Z,518.00
2023-12-09T04:54:29.376Z,518.00
2023-12-09T04:55:29.366Z,516.00
2023-12-09T04:56:29.541Z,517.00
2023-12-09T04:57:29.517Z,517.00
2023-12-09T04:58:29.580Z,518.00
2023-12-09T04:59:29.601Z,519.00
2023-12-09T05:00:29.745Z,519.00
2023-12-09T05:01:29.813Z,516.00
2023-12-09T05:02:29.940Z,516.00
2023-12-09T05:03:29.919Z,515.00
2023-12-09T05:04:29.960Z,515.00
2023-12-09T05:05:30.030Z,516.00
2023-12-09T05:06:30.036Z,518.00
2023-12-09T05:07:30.140Z,518.00
2023-12-09T05:08:30.208Z,519.00
2023-12-09T05:09:30.267Z,517.00
2023-12-09T05:10:30.331Z,514.00
2023-12-09T05:11:30.363Z,512.00
2023-12-09T05:12:30.788Z,509.00
2023-12-09T05:13:30.504Z,509.00
2023-12-09T05:14:30.528Z,508.00
2023-12-09T05:15:33.287Z,509.00
2023-12-09T05:16:30.632Z,509.00
2023-12-09T05:17:30.665Z,509.00
2023-12-09T05:18:30.697Z,509.00
2023-12-09T05:19:30.716Z,507.00
2023-12-09T05:20:30.627Z,509.00
2023-12-09T05:21:35.576Z,509.00
2023-12-09T05:22:31.663Z,510.00
2023-12-09T05:23:30.642Z,509.00
2023-12-09T05:24:30.702Z,508.00
2023-12-09T05:25:30.618Z,510.00
2023-12-09T05:26:30.675Z,509.00
2023-12-09T05:27:30.695Z,509.00
2023-12-09T05:28:30.648Z,508.00
2023-12-09T05:29:30.635Z,509.00
2023-12-09T05:30:30.627Z,509.00
2023-12-09T05:31:30.679Z,510.00
2023-12-09T05:32:30.748Z,508.00
2023-12-09T05:33:30.949Z,507.00
2023-12-09T05:34:30.988Z,507.00
2023-12-09T05:35:30.937Z,506.00
2023-12-09T05:36:31.056Z,507.00
2023-12-09T05:37:31.122Z,509.00
2023-12-09T05:38:31.092Z,508.00
2023-12-09T05:39:31.269Z,505.00
2023-12-09T05:40:32.620Z,505.00
2023-12-09T05:41:31.241Z,505.00
2023-12-09T05:42:31.486Z,507.00
2023-12-09T05:43:31.308Z,507.00
2023-12-09T05:44:31.245Z,506.00
2023-12-09T05:45:31.313Z,507.00
2023-12-09T05:46:31.218Z,508.00
2023-12-09T05:47:31.345Z,507.00
2023-12-09T05:48:31.322Z,509.00
2023-12-09T05:49:31.332Z,510.00
2023-12-09T05:50:31.281Z,512.00
2023-12-09T05:51:31.341Z,509.00
2023-12-09T05:52:31.249Z,507.00
2023-12-09T05:53:31.264Z,508.00
2023-12-09T05:54:31.302Z,506.00
2023-12-09T05:55:31.258Z,508.00
2023-12-09T05:56:31.275Z,509.00
2023-12-09T05:57:31.306Z,511.00
2023-12-09T05:58:31.290Z,511.00
2023-12-09T05:59:31.292Z,507.00
2023-12-09T06:00:31.525Z,510.00
2023-12-09T06:01:31.288Z,510.00
2023-12-09T06:02:31.269Z,510.00
2023-12-09T06:03:31.281Z,510.00
2023-12-09T06:04:31.410Z,510.00
2023-12-09T06:05:31.308Z,510.00
2023-12-09T06:06:31.356Z,510.00
2023-12-09T06:07:31.302Z,510.00
2023-12-09T06:08:31.265Z,508.00
2023-12-09T06:09:31.301Z,509.00
2023-12-09T06:10:31.263Z,510.00
2023-12-09T06:11:31.266Z,514.00
2023-12-09T06:12:31.436Z,515.00
2023-12-09T06:13:31.281Z,515.00
2023-12-09T06:14:31.289Z,515.00
2023-12-09T06:15:31.411Z,515.00
2023-12-09T06:16:31.412Z,516.00
2023-12-09T06:17:31.483Z,515.00
2023-12-09T06:18:31.619Z,514.00
2023-12-09T06:19:31.622Z,513.00
2023-12-09T06:20:31.686Z,513.00
2023-12-09T06:21:31.861Z,515.00
2023-12-09T06:22:31.808Z,515.00
2023-12-09T06:23:31.863Z,517.00
2023-12-09T06:24:32.005Z,517.00
2023-12-09T06:25:32.045Z,516.00
2023-12-09T06:26:32.103Z,516.00
2023-12-09T06:27:32.201Z,517.00
2023-12-09T06:28:32.217Z,517.00
2023-12-09T06:29:32.322Z,520.00
2023-12-09T06:30:32.432Z,521.00
2023-12-09T06:31:32.430Z,518.00
2023-12-09T06:32:32.514Z,517.00
2023-12-09T06:33:32.732Z,515.00
2023-12-09T06:34:32.785Z,516.00
2023-12-09T06:35:32.717Z,517.00
2023-12-09T06:36:32.810Z,515.00
2023-12-09T06:37:32.872Z,514.00
2023-12-09T06:38:32.891Z,514.00
2023-12-09T06:39:33.028Z,516.00
2023-12-09T06:40:33.054Z,518.00
2023-12-09T06:41:33.106Z,517.00
2023-12-09T06:42:33.233Z,517.00
2023-12-09T06:43:33.287Z,518.00
2023-12-09T06:44:33.347Z,517.00
2023-12-09T06:45:33.438Z,517.00
2023-12-09T06:46:33.459Z,517.00
2023-12-09T06:47:33.667Z,518.00
2023-12-09T06:48:33.799Z,516.00
2023-12-09T06:49:33.761Z,516.00
2023-12-09T06:50:33.761Z,516.00
2023-12-09T06:51:34.057Z,514.00
2023-12-09T06:52:33.930Z,512.00
2023-12-09T06:53:33.969Z,513.00
2023-12-09T06:54:34.072Z,515.00
2023-12-09T06:55:34.145Z,516.00
2023-12-09T06:56:34.188Z,513.00
2023-12-09T06:57:34.277Z,510.00
2023-12-09T06:58:34.323Z,509.00
2023-12-09T06:59:34.389Z,509.00
2023-12-09T07:00:34.591Z,511.00
2023-12-09T07:01:34.581Z,513.00
2023-12-09T07:02:44.562Z,514.00
2023-12-09T07:03:35.674Z,517.00
2023-12-09T07:04:34.841Z,516.00
2023-12-09T07:05:34.677Z,515.00
2023-12-09T07:06:34.782Z,516.00
2023-12-09T07:07:35.488Z,515.00
2023-12-09T07:08:34.667Z,516.00
2023-12-09T07:09:34.636Z,517.00
2023-12-09T07:10:34.704Z,516.00
2023-12-09T07:11:34.756Z,514.00
2023-12-09T07:12:34.854Z,515.00
2023-12-09T07:13:34.929Z,516.00
2023-12-09T07:14:34.964Z,518.00
2023-12-09T07:15:35.095Z,518.00
2023-12-09T07:16:35.089Z,518.00
2023-12-09T07:17:35.307Z,517.00
2023-12-09T07:18:35.340Z,516.00
2023-12-09T07:19:35.405Z,518.00
2023-12-09T07:20:35.374Z,517.00
2023-12-09T07:21:35.534Z,518.00
2023-12-09T07:22:35.495Z,516.00
2023-12-09T07:23:35.597Z,519.00
2023-12-09T07:24:35.712Z,523.00
2023-12-09T07:25:35.741Z,524.00
2023-12-09T07:26:35.818Z,522.00
2023-12-09T07:27:35.905Z,521.00
2023-12-09T07:28:35.938Z,522.00
2023-12-09T07:29:35.957Z,521.00
2023-12-09T07:30:36.126Z,519.00
2023-12-09T07:31:36.110Z,520.00
2023-12-09T07:32:36.228Z,519.00
2023-12-09T07:33:36.468Z,518.00
2023-12-09T07:34:36.468Z,517.00
2023-12-09T07:35:36.400Z,516.00
2023-12-09T07:36:36.555Z,515.00
2023-12-09T07:37:36.509Z,516.00
2023-12-09T07:38:36.598Z,513.00
2023-12-09T07:39:36.737Z,513.00
2023-12-09T07:40:36.734Z,513.00
2023-12-09T07:41:36.792Z,512.00
2023-12-09T07:42:36.887Z,513.00
2023-12-09T07:43:40.169Z,516.00
2023-12-09T07:44:36.921Z,517.00
2023-12-09T07:45:37.082Z,518.00
2023-12-09T07:46:36.925Z,521.00
2023-12-09T07:47:36.961Z,519.00
2023-12-09T07:48:37.060Z,519.00
2023-12-09T07:49:37.038Z,519.00
2023-12-09T07:50:36.920Z,517.00
2023-12-09T07:51:36.983Z,516.00
2023-12-09T07:52:36.969Z,517.00
2023-12-09T07:53:36.973Z,519.00
2023-12-09T07:54:36.958Z,518.00
2023-12-09T07:55:36.956Z,516.00
2023-12-09T07:56:37.024Z,514.00
2023-12-09T07:57:37.055Z,512.00
2023-12-09T07:58:36.969Z,512.00
2023-12-09T07:59:36.968Z,513.00
2023-12-09T08:00:36.980Z,513.00
2023-12-09T08:01:36.980Z,512.00
2023-12-09T08:02:36.991Z,512.00
2023-12-09T08:03:36.988Z,511.00
2023-12-09T08:04:36.995Z,513.00
2023-12-09T08:05:37.084Z,512.00
2023-12-09T08:06:37.150Z,512.00
2023-12-09T08:07:37.122Z,513.00
2023-12-09T08:08:37.162Z,511.00
2023-12-09T08:09:37.319Z,512.00
2023-12-09T08:10:37.309Z,510.00
2023-12-09T08:11:37.428Z,511.00
2023-12-09T08:12:37.560Z,510.00
2023-12-09T08:13:37.523Z,509.00
2023-12-09T08:14:37.590Z,509.00
2023-12-09T08:15:37.745Z,510.00
2023-12-09T08:16:37.758Z,512.00
2023-12-09T08:17:37.805Z,510.00
2023-12-09T08:18:38.075Z,511.00
2023-12-09T08:19:38.126Z,511.00
2023-12-09T08:20:37.999Z,512.00
2023-12-09T08:21:38.161Z,508.00
2023-12-09T08:22:38.144Z,509.00
2023-12-09T08:23:38.259Z,509.00
2023-12-09T08:24:38.323Z,510.00
2023-12-09T08:25:38.384Z,509.00
2023-12-09T08:26:38.677Z,510.00
2023-12-09T08:27:38.556Z,508.00
2023-12-09T08:28:38.589Z,509.00
2023-12-09T08:29:38.647Z,511.00
2023-12-09T08:30:38.773Z,512.00
2023-12-09T08:31:38.783Z,515.00
2023-12-09T08:32:38.841Z,513.00
2023-12-09T08:33:39.022Z,512.00
2023-12-09T08:34:39.062Z,510.00
2023-12-09T08:35:41.768Z,511.00
2023-12-09T08:36:39.061Z,515.00
2023-12-09T08:37:39.029Z,516.00
2023-12-09T08:38:39.087Z,516.00
2023-12-09T08:39:39.074Z,516.00
2023-12-09T08:40:39.024Z,516.00
2023-12-09T08:41:39.044Z,517.00
2023-12-09T08:42:39.092Z,516.00
2023-12-09T08:43:39.066Z,517.00
2023-12-09T08:44:39.097Z,517.00
2023-12-09T08:45:39.088Z,518.00
2023-12-09T08:46:39.032Z,516.00
2023-12-09T08:47:41.078Z,517.00
2023-12-09T08:48:39.209Z,518.00
2023-12-09T08:49:39.114Z,518.00
2023-12-09T08:50:39.072Z,518.00
2023-12-09T08:51:39.131Z,518.00
2023-12-09T08:52:39.070Z,521.00
2023-12-09T08:53:39.076Z,522.00
2023-12-09T08:54:39.092Z,522.00
2023-12-09T08:55:39.057Z,521.00
2023-12-09T08:56:39.046Z,520.00
2023-12-09T08:57:39.073Z,518.00
2023-12-09T08:58:39.033Z,517.00
2023-12-09T08:59:39.035Z,516.00
2023-12-09T09:00:39.196Z,512.00
2023-12-09T09:01:39.133Z,511.00
2023-12-09T09:02:39.065Z,511.00
2023-12-09T09:03:39.139Z,512.00
2023-12-09T09:04:39.157Z,514.00
2023-12-09T09:05:39.118Z,514.00
2023-12-09T09:06:39.093Z,512.00
2023-12-09T09:07:39.056Z,510.00
2023-12-09T09:08:39.067Z,509.00
2023-12-09T09:09:39.197Z,510.00
2023-12-09T09:10:39.082Z,508.00
2023-12-09T09:11:39.168Z,510.00
2023-12-09T09:12:39.192Z,508.00
2023-12-09T09:13:39.065Z,509.00
2023-12-09T09:14:39.087Z,509.00
2023-12-09T09:15:39.157Z,513.00
2023-12-09T09:16:39.068Z,514.00
2023-12-09T09:17:39.168Z,514.00
2023-12-09T09:18:39.317Z,513.00
2023-12-09T09:19:39.307Z,513.00
2023-12-09T09:20:39.332Z,511.00
2023-12-09T09:21:39.458Z,509.00
2023-12-09T09:22:39.475Z,510.00
2023-12-09T09:23:39.442Z,511.00
2023-12-09T09:24:39.575Z,512.00
2023-12-09T09:25:39.557Z,509.00
2023-12-09T09:26:39.641Z,507.00
2023-12-09T09:27:39.793Z,506.00
2023-12-09T09:28:39.761Z,504.00
2023-12-09T09:29:39.824Z,506.00
2023-12-09T09:30:39.934Z,507.00
2023-12-09T09:31:39.974Z,505.00
2023-12-09T09:32:40.018Z,505.00
2023-12-09T09:33:40.144Z,507.00
2023-12-09T09:34:40.188Z,507.00
2023-12-09T09:35:40.223Z,506.00
2023-12-09T09:36:40.263Z,507.00
2023-12-09T09:37:40.334Z,510.00
2023-12-09T09:38:40.324Z,508.00
2023-12-09T09:39:40.479Z,509.00
2023-12-09T09:40:40.486Z,510.00
2023-12-09T09:41:40.518Z,510.00
2023-12-09T09:42:40.633Z,508.00
2023-12-09T09:43:40.667Z,509.00
2023-12-09T09:44:40.727Z,507.00
2023-12-09T09:45:40.799Z,508.00
2023-12-09T09:46:40.812Z,507.00
2023-12-09T09:47:41.178Z,506.00
2023-12-09T09:48:41.036Z,508.00
2023-12-09T09:49:41.053Z,508.00
2023-12-09T09:50:41.089Z,507.00
2023-12-09T09:51:41.180Z,505.00
2023-12-09T09:52:41.177Z,504.00
2023-12-09T09:53:41.214Z,503.00
2023-12-09T09:54:41.342Z,505.00
2023-12-09T09:55:41.480Z,504.00
2023-12-09T09:56:41.418Z,506.00
2023-12-09T09:57:41.497Z,506.00
2023-12-09T09:58:41.539Z,507.00
2023-12-09T09:59:41.615Z,505.00
2023-12-09T10:00:41.812Z,505.00
2023-12-09T10:01:42.595Z,503.00
2023-12-09T10:02:41.769Z,501.00
2023-12-09T10:03:41.868Z,500.00
2023-12-09T10:04:41.981Z,501.00
2023-12-09T10:05:41.886Z,500.00
2023-12-09T10:06:41.987Z,499.00
2023-12-09T10:07:42.156Z,498.00
2023-12-09T10:08:42.060Z,498.00
2023-12-09T10:09:42.252Z,500.00
2023-12-09T10:10:43.045Z,502.00
2023-12-09T10:11:42.227Z,503.00
2023-12-09T10:12:42.335Z,503.00
2023-12-09T10:13:42.349Z,504.00
2023-12-09T10:14:42.417Z,507.00
2023-12-09T10:15:42.492Z,507.00
2023-12-09T10:16:42.537Z,508.00
2023-12-09T10:17:42.782Z,505.00
2023-12-09T10:18:42.784Z,504.00
2023-12-09T10:19:42.782Z,503.00
2023-12-09T10:20:42.761Z,501.00
2023-12-09T10:21:42.827Z,501.00
2023-12-09T10:22:42.860Z,500.00
2023-12-09T10:23:42.926Z,500.00
2023-12-09T10:24:50.130Z,501.00
2023-12-09T10:25:43.967Z,500.00
2023-12-09T10:26:42.977Z,501.00
2023-12-09T10:27:43.082Z,503.00
2023-12-09T10:28:43.034Z,502.00
2023-12-09T10:29:46.574Z,503.00
2023-12-09T10:30:43.062Z,505.00
2023-12-09T10:31:42.988Z,505.00
2023-12-09T10:32:43.044Z,502.00
2023-12-09T10:33:43.090Z,501.00
2023-12-09T10:34:43.091Z,501.00
2023-12-09T10:35:43.038Z,501.00
2023-12-09T10:36:42.998Z,502.00
2023-12-09T10:37:42.999Z,500.00
2023-12-09T10:38:42.984Z,502.00
2023-12-09T10:39:43.019Z,505.00
2023-12-09T10:40:43.022Z,505.00
2023-12-09T10:41:43.011Z,504.00
2023-12-09T10:42:43.025Z,506.00
2023-12-09T10:43:43.017Z,507.00
2023-12-09T10:44:43.019Z,508.00
2023-12-09T10:45:43.059Z,510.00
2023-12-09T10:46:42.986Z,509.00
2023-12-09T10:47:43.115Z,509.00
2023-12-09T10:48:43.196Z,509.00
2023-12-09T10:49:43.375Z,509.00
2023-12-09T10:50:43.224Z,506.00
2023-12-09T10:51:43.305Z,505.00
2023-12-09T10:52:43.324Z,505.00
2023-12-09T10:53:43.379Z,506.00
2023-12-09T10:54:43.532Z,506.00
2023-12-09T10:55:43.517Z,506.00
2023-12-09T10:56:43.556Z,503.00
2023-12-09T10:57:43.670Z,502.00
2023-12-09T10:58:43.727Z,503.00
2023-12-09T10:59:43.756Z,500.00
2023-12-09T11:00:43.911Z,500.00
2023-12-09T11:01:43.865Z,501.00
2023-12-09T11:02:43.962Z,500.00
2023-12-09T11:03:44.152Z,499.00
2023-12-09T11:04:44.077Z,498.00
2023-12-09T11:05:44.168Z,499.00
2023-12-09T11:06:44.261Z,499.00
2023-12-09T11:07:44.215Z,497.00
2023-12-09T11:08:44.260Z,495.00
2023-12-09T11:09:44.406Z,495.00
2023-12-09T11:10:44.448Z,496.00
2023-12-09T11:11:44.486Z,495.00
2023-12-09T11:12:44.597Z,493.00
2023-12-09T11:13:44.604Z,493.00
2023-12-09T11:14:44.713Z,495.00
2023-12-09T11:15:44.856Z,495.00
2023-12-09T11:16:44.823Z,496.00
2023-12-09T11:17:44.923Z,497.00
2023-12-09T11:18:45.034Z,498.00
2023-12-09T11:19:45.046Z,496.00
2023-12-09T11:20:44.997Z,496.00
2023-12-09T11:21:45.126Z,496.00
2023-12-09T11:22:45.120Z,496.00
2023-12-09T11:23:45.205Z,495.00
2023-12-09T11:24:45.270Z,496.00
2023-12-09T11:25:45.399Z,497.00
2023-12-09T11:26:45.414Z,497.00
2023-12-09T11:27:45.470Z,495.00
2023-12-09T11:28:45.533Z,495.00
2023-12-09T11:29:45.578Z,496.00
2023-12-09T11:30:45.834Z,498.00
2023-12-09T11:31:45.658Z,499.00
2023-12-09T11:32:45.801Z,497.00
2023-12-09T11:33:45.960Z,497.00
2023-12-09T11:34:45.866Z,496.00
2023-12-09T11:35:45.943Z,497.00
2023-12-09T11:36:46.056Z,496.00
2023-12-09T11:37:46.053Z,494.00
2023-12-09T11:38:46.121Z,492.00
2023-12-09T11:39:46.164Z,490.00
2023-12-09T11:40:46.237Z,490.00
2023-12-09T11:41:46.309Z,491.00
2023-12-09T11:42:46.360Z,491.00
2023-12-09T11:43:46.424Z,491.00
2023-12-09T11:44:46.454Z,491.00
2023-12-09T11:45:46.542Z,492.00
2023-12-09T11:46:46.863Z,492.00
2023-12-09T11:47:46.767Z,496.00
2023-12-09T11:48:46.804Z,495.00
2023-12-09T11:49:46.894Z,494.00
2023-12-09T11:50:46.800Z,495.00
2023-12-09T11:51:46.871Z,497.00
2023-12-09T11:52:46.927Z,497.00
2023-12-09T11:53:46.978Z,497.00
2023-12-09T11:54:47.008Z,495.00
2023-12-09T11:55:47.090Z,493.00
2023-12-09T11:56:47.154Z,493.00
2023-12-09T11:57:47.179Z,494.00
2023-12-09T11:58:47.241Z,491.00
2023-12-09T11:59:47.292Z,492.00
2023-12-09T12:00:47.385Z,491.00
2023-12-09T12:01:47.402Z,493.00
2023-12-09T12:02:47.422Z,493.00
2023-12-09T12:03:47.562Z,492.00
2023-12-09T12:04:47.582Z,492.00
2023-12-09T12:05:47.649Z,491.00
2023-12-09T12:06:47.699Z,490.00
2023-12-09T12:07:47.738Z,491.00
2023-12-09T12:08:47.795Z,492.00
2023-12-09T12:09:47.868Z,492.00
2023-12-09T12:10:47.894Z,494.00
2023-12-09T12:11:47.980Z,494.00
2023-12-09T12:12:48.065Z,494.00
2023-12-09T12:13:48.059Z,494.00
2023-12-09T12:14:48.099Z,491.00
2023-12-09T12:15:48.322Z,491.00
2023-12-09T12:16:48.221Z,491.00
2023-12-09T12:17:48.282Z,491.00
2023-12-09T12:18:48.958Z,492.00
2023-12-09T12:19:48.599Z,492.00
2023-12-09T12:20:48.474Z,490.00
2023-12-09T12:21:48.531Z,490.00
2023-12-09T12:22:48.621Z,488.00
2023-12-09T12:23:48.597Z,488.00
2023-12-09T12:24:48.688Z,488.00
2023-12-09T12:25:48.736Z,486.00
2023-12-09T12:26:48.784Z,488.00
2023-12-09T12:27:48.919Z,490.00
2023-12-09T12:28:48.915Z,490.00
2023-12-09T12:29:48.988Z,490.00